Terminal Aerodrome Forecast
Issued by NWS

Home | Current Version | Previous Version | Text Only | Print | Product List | Glossary Off
Versions: 1 2 3 4 5 6 7 8 9 10 11 12 13 14 15 16 17 18 19 20 21 22 23 24 25 26 27 28 29 30 31 32

000
FTUS41 KCLE 192200 AAA
TAFFDY
TAF AMD
KFDY 192234Z 1923/2018 24006KT P6SM BKN050
      TEMPO 1923/2001 2SM TSRA OVC025CB
     FM200100 28012KT 5SM SHRA OVC035
     FM200400 20004KT 6SM BR BKN050
     FM200800 20004KT 4SM BR SCT012 BKN050
      TEMPO 2009/2013 2SM BR BKN012
     FM201400 25006KT P6SM SCT025 BKN120=

USA.gov is the U.S. government's official web portal to all federal, state and local government web resources and services.